Time,TemperatureF,DewpointF,PressureIn,WindDirection,WindDirectionDegrees,WindSpeedMPH,WindSpeedGustMPH,Humidity,HourlyPrecipIn,Conditions,Clouds,dailyrainin,SoftwareType,DateUTC
2013-09-07 00:43:00,74.1,59.5,29.92,NE,45,0.0,0.0,60,0.00,,FEW,0.00,WUHU21623XXSP,2013-09-06 21:43:00,
2013-09-07 01:43:00,73.2,60.5,29.93,SW,225,0.0,0.0,64,0.00,,FEW,0.00,WUHU21623XXSP,2013-09-06 22:43:00,
2013-09-07 02:43:00,72.3,60.9,29.93,WNW,293,0.0,0.0,67,0.00,,FEW,0.00,WUHU21623XXSP,2013-09-06 23:43:00,
2013-09-07 03:43:00,72.0,59.8,29.92,North,0,0.0,0.0,65,0.00,,FEW,0.00,WUHU21623XXSP,2013-09-07 00:43:00,
2013-09-07 04:43:00,71.4,59.2,29.93,NE,45,0.0,0.0,65,0.00,,FEW,0.00,WUHU21623XXSP,2013-09-07 01:43:00,
2013-09-07 05:43:00,72.1,59.0,29.93,NNE,23,0.0,0.0,63,0.00,,FEW,0.00,WUHU21623XXSP,2013-09-07 02:43:00,
2013-09-07 06:43:00,72.0,58.9,29.93,North,0,2.2,2.2,63,0.00,,FEW,0.00,WUHU21623XXSP,2013-09-07 03:43:00,
2013-09-07 07:29:00,72.3,59.6,29.95,NNE,22,0.0,0.0,64,0.00,,FEW,0.00,WUHU21623XXSP,2013-09-07 04:29:00,
2013-09-07 07:30:00,72.3,59.6,29.95,North,0,0.0,0.0,64,0.00,,FEW,0.00,WUHU21623XXSP,2013-09-07 04:30:00,
2013-09-07 07:35:00,72.3,59.6,29.95,NE,45,2.8,4.9,64,0.00,,BKN,0.00,WUHU21623XXSP,2013-09-07 04:35:00,
2013-09-07 07:40:00,72.5,59.8,29.95,North,0,0.0,4.9,64,0.00,,BKN,0.00,WUHU21623XXSP,2013-09-07 04:40:00,
2013-09-07 07:45:00,72.5,59.8,29.95,NNE,22,0.0,4.4,64,0.00,,BKN,0.00,WUHU21623XXSP,2013-09-07 04:45:00,
2013-09-07 07:50:00,72.9,60.2,29.94,NNE,22,0.0,4.4,64,0.00,,BKN,0.00,WUHU21623XXSP,2013-09-07 04:50:00,
2013-09-07 07:55:00,73.0,60.3,29.95,NNE,22,5.4,5.4,64,0.00,,BKN,0.00,WUHU21623XXSP,2013-09-07 04:55:00,
2013-09-07 08:00:00,73.0,60.3,29.94,NNW,337,2.8,5.4,64,0.00,,BKN,0.00,WUHU21623XXSP,2013-09-07 05:00:00,
2013-09-07 08:05:00,73.0,60.3,29.95,NNE,22,1.4,4.7,64,0.00,,BKN,0.00,WUHU21623XXSP,2013-09-07 05:05:00,
2013-09-07 08:43:00,74.3,59.2,29.95,NNW,338,4.7,4.7,59,0.00,,BKN,0.00,WUHU21623XXSP,2013-09-07 05:43:00,
2013-09-07 09:43:00,79.0,60.6,29.97,SSW,203,1.4,1.4,53,0.00,,BKN,0.00,WUHU21623XXSP,2013-09-07 06:43:00,
2013-09-07 10:43:00,79.3,61.4,29.99,South,180,0.0,0.0,54,0.00,,BKN,0.00,WUHU21623XXSP,2013-09-07 07:43:00,
2013-09-07 11:43:00,79.9,61.4,30.00,South,180,1.2,1.2,53,0.00,,BKN,0.00,WUHU21623XXSP,2013-09-07 08:43:00,
2013-09-07 12:48:00,81.7,60.8,29.99,WNW,293,1.2,1.2,49,0.00,,BKN,0.00,WUHU21623XXSP,2013-09-07 09:48:00,
2013-09-07 12:53:00,81.3,61.0,29.99,East,90,0.0,0.0,50,0.00,,BKN,0.00,WUHU21623XXSP,2013-09-07 09:53:00,
2013-09-07 12:58:00,81.5,60.6,29.99,ENE,67,0.0,1.2,49,0.00,,BKN,0.00,WUHU21623XXSP,2013-09-07 09:58:00,
2013-09-07 13:03:00,81.7,60.8,29.99,ENE,67,0.0,2.0,49,0.00,,BKN,0.00,WUHU21623XXSP,2013-09-07 10:03:00,
2013-09-07 13:08:00,81.5,61.2,29.99,SE,135,0.0,2.0,50,0.00,,BKN,0.00,WUHU21623XXSP,2013-09-07 10:08:00,
2013-09-07 13:13:00,81.3,61.6,29.99,ESE,112,0.0,2.4,51,0.00,,BKN,0.00,WUHU21623XXSP,2013-09-07 10:13:00,
2013-09-07 13:18:00,81.5,61.2,29.99,NNE,22,0.8,3.7,50,0.00,,BKN,0.00,WUHU21623XXSP,2013-09-07 10:18:00,
2013-09-07 13:23:00,81.5,61.2,29.99,North,0,2.4,4.0,50,0.00,,BKN,0.00,WUHU21623XXSP,2013-09-07 10:23:00,
2013-09-07 13:28:00,81.5,61.2,29.99,NNE,22,0.0,4.0,50,0.00,,BKN,0.00,WUHU21623XXSP,2013-09-07 10:28:00,
2013-09-07 13:33:00,81.7,60.8,29.99,WNW,292,0.0,2.2,49,0.00,,BKN,0.00,WUHU21623XXSP,2013-09-07 10:33:00,
2013-09-07 13:38:00,81.9,61.0,29.99,West,270,0.0,3.2,49,0.00,,BKN,0.00,WUHU21623XXSP,2013-09-07 10:38:00,
2013-09-07 13:43:00,81.9,61.0,29.99,NW,315,0.0,3.2,49,0.00,,BKN,0.00,WUHU21623XXSP,2013-09-07 10:43:00,
2013-09-07 13:48:00,81.9,61.0,29.99,NW,315,0.0,2.8,49,0.00,,BKN,0.00,WUHU21623XXSP,2013-09-07 10:48:00,
2013-09-07 13:53:00,81.5,60.6,29.99,NNE,22,0.0,2.0,49,0.00,,BKN,0.00,WUHU21623XXSP,2013-09-07 10:53:00,
2013-09-07 13:58:00,82.0,61.1,29.99,WSW,247,0.0,0.0,49,0.00,,BKN,0.00,WUHU21623XXSP,2013-09-07 10:58:00,
2013-09-07 14:03:00,81.9,61.0,29.99,SW,225,1.8,1.8,49,0.00,,BKN,0.00,WUHU21623XXSP,2013-09-07 11:03:00,
2013-09-07 14:08:00,81.7,64.2,29.99,SSE,157,3.4,7.4,55,0.00,,BKN,0.00,WUHU21623XXSP,2013-09-07 11:08:00,
2013-09-07 14:13:00,81.1,64.6,29.99,ESE,112,0.0,7.4,57,0.00,,BKN,0.00,WUHU21623XXSP,2013-09-07 11:13:00,
2013-09-07 14:18:00,81.3,64.3,29.99,West,270,1.8,4.9,56,0.00,,BKN,0.00,WUHU21623XXSP,2013-09-07 11:18:00,
2013-09-07 14:23:00,80.8,63.8,29.99,SW,225,3.2,5.2,56,0.00,,BKN,0.00,WUHU21623XXSP,2013-09-07 11:23:00,
2013-09-07 14:28:00,80.4,64.0,29.99,SW,225,4.4,5.2,57,0.00,,BKN,0.00,WUHU21623XXSP,2013-09-07 11:28:00,
2013-09-07 14:33:00,80.4,64.0,29.98,SSW,202,3.2,7.2,57,0.00,,BKN,0.00,WUHU21623XXSP,2013-09-07 11:33:00,
2013-09-07 14:38:00,80.4,64.0,29.99,SSE,157,1.8,7.2,57,0.00,,BKN,0.00,WUHU21623XXSP,2013-09-07 11:38:00,
2013-09-07 14:43:00,80.4,64.0,29.98,SW,225,2.8,6.9,57,0.00,,BKN,0.00,WUHU21623XXSP,2013-09-07 11:43:00,
2013-09-07 14:48:00,80.4,64.5,29.98,SSW,202,0.0,6.9,58,0.00,,BKN,0.00,WUHU21623XXSP,2013-09-07 11:48:00,
2013-09-07 14:53:00,80.8,64.9,29.98,SSE,157,0.0,3.2,58,0.00,,BKN,0.00,WUHU21623XXSP,2013-09-07 11:53:00,
2013-09-07 14:58:00,81.0,63.5,29.98,SSW,202,0.0,5.2,55,0.00,,BKN,0.00,WUHU21623XXSP,2013-09-07 11:58:00,
2013-09-07 15:03:00,81.5,64.5,29.98,South,180,0.0,5.2,56,0.00,,BKN,0.00,WUHU21623XXSP,2013-09-07 12:03:00,
2013-09-07 15:08:00,81.7,64.2,29.98,SSW,202,0.0,4.7,55,0.00,,BKN,0.00,WUHU21623XXSP,2013-09-07 12:08:00,
2013-09-07 15:13:00,81.9,63.3,29.98,SW,225,0.8,6.6,53,0.00,,BKN,0.00,WUHU21623XXSP,2013-09-07 12:13:00,
2013-09-07 15:18:00,81.9,62.7,29.98,South,180,0.0,6.6,52,0.00,,BKN,0.00,WUHU21623XXSP,2013-09-07 12:18:00,
2013-09-07 15:23:00,81.9,61.6,29.98,SSE,157,0.0,3.2,50,0.00,,BKN,0.00,WUHU21623XXSP,2013-09-07 12:23:00,
2013-09-07 15:28:00,82.2,62.4,29.97,SE,135,1.4,3.4,51,0.00,,BKN,0.00,WUHU21623XXSP,2013-09-07 12:28:00,
2013-09-07 15:33:00,82.4,62.6,29.97,SSW,202,0.0,3.4,51,0.00,,BKN,0.00,WUHU21623XXSP,2013-09-07 12:33:00,
2013-09-07 15:43:00,82.8,62.4,29.98,SSE,158,0.0,2.8,50,0.00,,BKN,0.00,WUHU21623XXSP,2013-09-07 12:43:00,
2013-09-07 16:52:00,83.1,63.2,29.97,SSW,203,4.2,4.2,51,0.00,,BKN,0.00,WUHU21623XXSP,2013-09-07 13:52:00,
2013-09-07 16:57:00,81.9,63.8,29.97,SW,225,7.4,8.1,54,0.00,,BKN,0.00,WUHU21623XXSP,2013-09-07 13:57:00,
2013-09-07 17:02:00,82.0,63.9,29.97,South,180,4.4,8.1,54,0.00,,BKN,0.00,WUHU21623XXSP,2013-09-07 14:02:00,
2013-09-07 17:07:00,81.9,64.3,29.97,SW,225,3.2,6.9,55,0.00,,BKN,0.00,WUHU21623XXSP,2013-09-07 14:07:00,
2013-09-07 17:12:00,81.5,64.0,29.97,South,180,0.0,6.9,55,0.00,,BKN,0.00,WUHU21623XXSP,2013-09-07 14:12:00,
2013-09-07 17:17:00,81.5,64.0,29.97,SSW,202,4.0,8.1,55,0.00,,BKN,0.00,WUHU21623XXSP,2013-09-07 14:17:00,
2013-09-07 17:22:00,81.3,63.8,29.97,SSE,157,0.0,8.1,55,0.00,,BKN,0.00,WUHU21623XXSP,2013-09-07 14:22:00,
2013-09-07 17:27:00,81.5,64.0,29.96,SSW,202,2.2,5.2,55,0.00,,BKN,0.00,WUHU21623XXSP,2013-09-07 14:27:00,
2013-09-07 17:32:00,81.5,64.0,29.97,SW,225,1.8,8.6,55,0.00,,BKN,0.00,WUHU21623XXSP,2013-09-07 14:32:00,
2013-09-07 17:37:00,81.1,63.6,29.97,SE,135,0.0,8.6,55,0.00,,BKN,0.00,WUHU21623XXSP,2013-09-07 14:37:00,
2013-09-07 17:42:00,81.3,63.8,29.97,NNW,337,0.0,8.6,55,0.00,,BKN,0.00,WUHU21623XXSP,2013-09-07 14:42:00,
2013-09-07 17:47:00,81.1,63.6,29.97,SW,225,4.2,8.6,55,0.00,,BKN,0.00,WUHU21623XXSP,2013-09-07 14:47:00,
2013-09-07 17:52:00,81.0,63.5,29.97,SSW,202,1.8,5.9,55,0.00,,BKN,0.00,WUHU21623XXSP,2013-09-07 14:52:00,
2013-09-07 17:57:00,80.8,63.3,29.97,South,180,0.0,5.6,55,0.00,,BKN,0.00,WUHU21623XXSP,2013-09-07 14:57:00,
2013-09-07 18:02:00,80.8,63.3,29.97,SSE,157,4.9,5.6,55,0.00,,BKN,0.00,WUHU21623XXSP,2013-09-07 15:02:00,
2013-09-07 18:07:00,80.8,63.8,29.97,SW,225,0.0,6.4,56,0.00,,BKN,0.00,WUHU21623XXSP,2013-09-07 15:07:00,
2013-09-07 18:12:00,80.8,63.3,29.97,SW,225,0.0,6.4,55,0.00,,BKN,0.00,WUHU21623XXSP,2013-09-07 15:12:00,
2013-09-07 18:17:00,81.0,63.5,29.97,SSW,202,3.0,4.4,55,0.00,,BKN,0.00,WUHU21623XXSP,2013-09-07 15:17:00,
2013-09-07 18:22:00,81.1,63.6,29.97,SSW,202,0.0,4.4,55,0.00,,BKN,0.00,WUHU21623XXSP,2013-09-07 15:22:00,
2013-09-07 18:27:00,81.1,63.6,29.97,SSW,202,3.0,4.9,55,0.00,,BKN,0.00,WUHU21623XXSP,2013-09-07 15:27:00,
2013-09-07 18:32:00,81.0,63.5,29.96,SSE,157,0.0,6.2,55,0.00,,BKN,0.00,WUHU21623XXSP,2013-09-07 15:32:00,
2013-09-07 18:37:00,80.8,63.8,29.97,ESE,112,0.0,6.2,56,0.00,,BKN,0.00,WUHU21623XXSP,2013-09-07 15:37:00,
2013-09-07 18:43:00,80.6,63.1,29.97,SSW,203,0.0,3.2,55,0.00,,BKN,0.00,WUHU21623XXSP,2013-09-07 15:43:00,
2013-09-07 19:43:00,78.3,62.5,29.97,SW,225,0.0,0.0,58,0.00,,BKN,0.00,WUHU21623XXSP,2013-09-07 16:43:00,
2013-09-07 20:00:00,77.9,62.1,29.97,SSE,157,0.0,0.0,58,0.00,,FEW,0.00,WUHU21623XXSP,2013-09-07 17:00:00,
2013-09-07 20:05:00,77.7,62.0,29.97,SSE,157,0.0,0.0,58,0.00,,FEW,0.00,WUHU21623XXSP,2013-09-07 17:05:00,
2013-09-07 20:10:00,77.7,62.0,29.97,SSE,157,0.0,0.0,58,0.00,,FEW,0.00,WUHU21623XXSP,2013-09-07 17:10:00,
2013-09-07 20:15:00,77.7,62.4,29.98,North,0,0.0,0.0,59,0.00,,FEW,0.00,WUHU21623XXSP,2013-09-07 17:15:00,
2013-09-07 20:20:00,77.5,61.8,29.98,North,0,0.0,3.2,58,0.00,,FEW,0.00,WUHU21623XXSP,2013-09-07 17:20:00,
2013-09-07 20:25:00,77.4,60.1,29.98,North,0,0.0,5.2,55,0.00,,FEW,0.00,WUHU21623XXSP,2013-09-07 17:25:00,
2013-09-07 20:30:00,77.4,59.1,29.98,WNW,292,0.0,5.2,53,0.00,,FEW,0.00,WUHU21623XXSP,2013-09-07 17:30:00,
2013-09-07 20:35:00,77.4,58.5,29.98,North,0,0.0,2.2,52,0.00,,FEW,0.00,WUHU21623XXSP,2013-09-07 17:35:00,
2013-09-07 20:40:00,77.2,57.2,29.98,North,0,0.0,4.9,50,0.00,,FEW,0.00,WUHU21623XXSP,2013-09-07 17:40:00,
2013-09-07 20:45:00,77.2,57.2,29.98,NNE,22,2.4,4.9,50,0.00,,FEW,0.00,WUHU21623XXSP,2013-09-07 17:45:00,
2013-09-07 20:50:00,77.2,57.2,29.98,NNE,22,0.0,5.2,50,0.00,,FEW,0.00,WUHU21623XXSP,2013-09-07 17:50:00,
2013-09-07 20:55:00,77.0,56.5,29.98,North,0,1.8,5.2,49,0.00,,FEW,0.00,WUHU21623XXSP,2013-09-07 17:55:00,
2013-09-07 21:00:00,76.6,56.1,29.99,NNE,22,0.0,3.4,49,0.00,,FEW,0.00,WUHU21623XXSP,2013-09-07 18:00:00,
2013-09-07 21:05:00,76.6,56.7,29.99,North,0,0.0,4.4,50,0.00,,FEW,0.00,WUHU21623XXSP,2013-09-07 18:05:00,
2013-09-07 21:10:00,76.5,56.6,29.99,NNE,22,0.0,4.4,50,0.00,,FEW,0.00,WUHU21623XXSP,2013-09-07 18:10:00,
2013-09-07 21:15:00,76.3,56.4,29.99,North,0,0.0,3.4,50,0.00,,FEW,0.00,WUHU21623XXSP,2013-09-07 18:15:00,
2013-09-07 21:43:00,75.4,57.2,30.00,North,0,0.0,0.0,53,0.00,,FEW,0.00,WUHU21623XXSP,2013-09-07 18:43:00,
2013-09-07 22:12:00,74.5,56.9,30.00,NE,45,2.8,2.8,54,0.00,,FEW,0.00,WUHU21623XXSP,2013-09-07 19:12:00,
2013-09-07 22:17:00,74.3,56.7,30.00,NNE,22,0.0,3.2,54,0.00,,FEW,0.00,WUHU21623XXSP,2013-09-07 19:17:00,
2013-09-07 22:22:00,74.3,56.7,30.00,North,0,2.8,3.4,54,0.00,,FEW,0.00,WUHU21623XXSP,2013-09-07 19:22:00,
2013-09-07 22:27:00,74.1,57.1,30.00,NNE,22,3.4,6.2,55,0.00,,FEW,0.00,WUHU21623XXSP,2013-09-07 19:27:00,
2013-09-07 22:32:00,74.1,57.1,30.00,NNE,22,1.8,6.4,55,0.00,,FEW,0.00,WUHU21623XXSP,2013-09-07 19:32:00,
2013-09-07 22:37:00,73.8,56.8,30.00,North,0,2.2,6.4,55,0.00,,FEW,0.00,WUHU21623XXSP,2013-09-07 19:37:00,
2013-09-07 22:42:00,73.8,56.8,30.00,North,0,0.0,6.2,55,0.00,,FEW,0.00,WUHU21623XXSP,2013-09-07 19:42:00,
2013-09-07 22:47:00,73.6,57.1,30.00,NNE,22,1.4,4.0,56,0.00,,FEW,0.00,WUHU21623XXSP,2013-09-07 19:47:00,
2013-09-07 22:52:00,73.4,56.9,30.01,North,0,2.4,4.4,56,0.00,,FEW,0.00,WUHU21623XXSP,2013-09-07 19:52:00,
2013-09-07 22:57:00,73.2,56.7,30.01,NE,45,0.0,4.9,56,0.00,,FEW,0.00,WUHU21623XXSP,2013-09-07 19:57:00,
2013-09-07 23:02:00,73.4,56.9,30.00,North,0,3.2,6.4,56,0.00,,FEW,0.00,WUHU21623XXSP,2013-09-07 20:02:00,
2013-09-07 23:07:00,73.2,56.7,30.00,NNE,22,3.7,6.4,56,0.00,,FEW,0.00,WUHU21623XXSP,2013-09-07 20:07:00,
2013-09-07 23:12:00,73.0,56.5,30.01,North,0,3.4,6.4,56,0.00,,FEW,0.00,WUHU21623XXSP,2013-09-07 20:12:00,
2013-09-07 23:17:00,73.0,56.5,30.01,NNE,22,4.2,5.6,56,0.00,,FEW,0.00,WUHU21623XXSP,2013-09-07 20:17:00,
2013-09-07 23:22:00,73.0,57.0,30.00,NNE,22,2.0,5.6,57,0.00,,FEW,0.00,WUHU21623XXSP,2013-09-07 20:22:00,
2013-09-07 23:27:00,72.9,56.9,30.00,NNE,22,0.0,5.6,57,0.00,,FEW,0.00,WUHU21623XXSP,2013-09-07 20:27:00,
2013-09-07 23:32:00,72.9,56.4,30.00,NNE,22,4.9,7.2,56,0.00,,FEW,0.00,WUHU21623XXSP,2013-09-07 20:32:00,
2013-09-07 23:37:00,72.9,56.4,30.00,NE,45,5.9,8.1,56,0.00,,FEW,0.00,WUHU21623XXSP,2013-09-07 20:37:00,
2013-09-07 23:42:00,72.9,56.4,30.01,NNE,22,2.2,8.1,56,0.00,,FEW,0.00,WUHU21623XXSP,2013-09-07 20:42:00,
2013-09-07 23:47:00,72.7,56.3,30.00,NNE,22,2.8,5.2,56,0.00,,FEW,0.00,WUHU21623XXSP,2013-09-07 20:47:00,